sensor_id;sensor_type;location;lat;lon;timestamp;P1;durP1;ratioP1;P2;durP2;ratioP2
28774;SDS011;15926;51.348;6.596;2023-05-10T00:00:26;28.80;;;14.90;;
28774;SDS011;15926;51.348;6.596;2023-05-10T00:02:52;23.00;;;13.90;;
28774;SDS011;15926;51.348;6.596;2023-05-10T00:05:18;22.40;;;14.15;;
28774;SDS011;15926;51.348;6.596;2023-05-10T00:07:44;23.63;;;13.90;;
28774;SDS011;15926;51.348;6.596;2023-05-10T00:10:10;25.13;;;14.07;;
28774;SDS011;15926;51.348;6.596;2023-05-10T00:12:36;21.38;;;13.98;;
28774;SDS011;15926;51.348;6.596;2023-05-10T00:15:03;24.38;;;14.20;;
28774;SDS011;15926;51.348;6.596;2023-05-10T00:17:29;21.20;;;13.10;;
28774;SDS011;15926;51.348;6.596;2023-05-10T00:19:55;23.38;;;13.05;;
28774;SDS011;15926;51.348;6.596;2023-05-10T00:22:21;22.63;;;13.05;;
28774;SDS011;15926;51.348;6.596;2023-05-10T00:24:47;21.50;;;13.05;;
28774;SDS011;15926;51.348;6.596;2023-05-10T00:27:13;22.08;;;13.45;;
28774;SDS011;15926;51.348;6.596;2023-05-10T00:29:39;21.80;;;13.13;;
28774;SDS011;15926;51.348;6.596;2023-05-10T00:32:05;20.60;;;13.02;;
28774;SDS011;15926;51.348;6.596;2023-05-10T00:34:31;21.92;;;12.68;;
28774;SDS011;15926;51.348;6.596;2023-05-10T00:36:57;22.70;;;13.32;;
28774;SDS011;15926;51.348;6.596;2023-05-10T00:39:23;22.42;;;12.88;;
28774;SDS011;15926;51.348;6.596;2023-05-10T00:41:51;20.60;;;12.25;;
28774;SDS011;15926;51.348;6.596;2023-05-10T00:44:17;22.60;;;12.98;;
28774;SDS011;15926;51.348;6.596;2023-05-10T00:46:43;22.52;;;13.68;;
28774;SDS011;15926;51.348;6.596;2023-05-10T00:49:10;23.38;;;14.52;;
28774;SDS011;15926;51.348;6.596;2023-05-10T00:51:36;22.83;;;13.25;;
28774;SDS011;15926;51.348;6.596;2023-05-10T00:54:02;22.40;;;13.45;;
28774;SDS011;15926;51.348;6.596;2023-05-10T00:56:28;23.20;;;13.55;;
28774;SDS011;15926;51.348;6.596;2023-05-10T00:58:55;27.15;;;14.60;;
28774;SDS011;15926;51.348;6.596;2023-05-10T01:01:21;26.25;;;15.63;;
28774;SDS011;15926;51.348;6.596;2023-05-10T01:03:48;26.33;;;15.00;;
28774;SDS011;15926;51.348;6.596;2023-05-10T01:06:14;27.98;;;16.38;;
28774;SDS011;15926;51.348;6.596;2023-05-10T01:08:40;27.88;;;15.02;;
28774;SDS011;15926;51.348;6.596;2023-05-10T01:11:06;27.23;;;15.13;;
28774;SDS011;15926;51.348;6.596;2023-05-10T01:13:33;26.75;;;14.80;;
28774;SDS011;15926;51.348;6.596;2023-05-10T01:15:59;24.60;;;13.93;;
28774;SDS011;15926;51.348;6.596;2023-05-10T01:18:27;25.35;;;12.95;;
28774;SDS011;15926;51.348;6.596;2023-05-10T01:21:00;24.90;;;12.88;;
28774;SDS011;15926;51.348;6.596;2023-05-10T01:31:57;19.83;;;11.10;;
28774;SDS011;15926;51.348;6.596;2023-05-10T01:34:27;19.63;;;11.50;;
28774;SDS011;15926;51.348;6.596;2023-05-10T01:36:55;18.05;;;10.73;;
28774;SDS011;15926;51.348;6.596;2023-05-10T01:39:33;20.63;;;11.82;;
28774;SDS011;15926;51.348;6.596;2023-05-10T01:42:07;22.17;;;11.90;;
28774;SDS011;15926;51.348;6.596;2023-05-10T01:44:40;22.73;;;12.65;;
28774;SDS011;15926;51.348;6.596;2023-05-10T01:47:12;23.00;;;13.02;;
28774;SDS011;15926;51.348;6.596;2023-05-10T01:49:42;20.67;;;11.30;;
28774;SDS011;15926;51.348;6.596;2023-05-10T01:52:10;17.35;;;10.98;;
28774;SDS011;15926;51.348;6.596;2023-05-10T01:54:38;19.42;;;11.40;;
28774;SDS011;15926;51.348;6.596;2023-05-10T01:57:06;18.75;;;11.73;;
28774;SDS011;15926;51.348;6.596;2023-05-10T01:59:34;23.33;;;12.20;;
28774;SDS011;15926;51.348;6.596;2023-05-10T02:02:06;19.23;;;12.73;;
28774;SDS011;15926;51.348;6.596;2023-05-10T02:04:33;21.60;;;12.05;;
28774;SDS011;15926;51.348;6.596;2023-05-10T02:07:01;24.17;;;12.90;;
28774;SDS011;15926;51.348;6.596;2023-05-10T02:09:27;25.52;;;12.80;;
28774;SDS011;15926;51.348;6.596;2023-05-10T02:11:54;21.02;;;12.50;;
28774;SDS011;15926;51.348;6.596;2023-05-10T02:14:21;20.75;;;13.18;;
28774;SDS011;15926;51.348;6.596;2023-05-10T02:16:49;21.75;;;13.55;;
28774;SDS011;15926;51.348;6.596;2023-05-10T02:19:16;23.17;;;12.32;;
28774;SDS011;15926;51.348;6.596;2023-05-10T02:21:43;24.90;;;13.27;;
28774;SDS011;15926;51.348;6.596;2023-05-10T02:24:09;25.73;;;14.15;;
28774;SDS011;15926;51.348;6.596;2023-05-10T02:26:36;20.13;;;11.70;;
28774;SDS011;15926;51.348;6.596;2023-05-10T02:29:03;19.30;;;11.93;;
28774;SDS011;15926;51.348;6.596;2023-05-10T02:31:32;20.00;;;11.73;;
28774;SDS011;15926;51.348;6.596;2023-05-10T02:33:58;20.92;;;12.35;;
28774;SDS011;15926;51.348;6.596;2023-05-10T02:36:25;22.52;;;11.35;;
28774;SDS011;15926;51.348;6.596;2023-05-10T02:38:52;21.52;;;11.13;;
28774;SDS011;15926;51.348;6.596;2023-05-10T02:41:19;18.77;;;11.45;;
28774;SDS011;15926;51.348;6.596;2023-05-10T02:43:47;19.55;;;11.80;;
28774;SDS011;15926;51.348;6.596;2023-05-10T02:46:15;26.23;;;12.07;;
28774;SDS011;15926;51.348;6.596;2023-05-10T02:48:41;19.23;;;11.00;;
28774;SDS011;15926;51.348;6.596;2023-05-10T02:51:07;18.25;;;10.68;;
28774;SDS011;15926;51.348;6.596;2023-05-10T02:53:34;19.98;;;11.43;;
28774;SDS011;15926;51.348;6.596;2023-05-10T02:56:06;20.83;;;11.35;;
28774;SDS011;15926;51.348;6.596;2023-05-10T02:58:36;21.13;;;11.13;;
28774;SDS011;15926;51.348;6.596;2023-05-10T03:01:02;21.55;;;10.82;;
28774;SDS011;15926;51.348;6.596;2023-05-10T03:03:28;20.77;;;11.73;;
28774;SDS011;15926;51.348;6.596;2023-05-10T03:05:53;21.80;;;12.63;;
28774;SDS011;15926;51.348;6.596;2023-05-10T03:08:21;19.50;;;11.27;;
28774;SDS011;15926;51.348;6.596;2023-05-10T03:10:54;21.23;;;11.32;;
28774;SDS011;15926;51.348;6.596;2023-05-10T03:16:08;25.50;;;11.88;;
28774;SDS011;15926;51.348;6.596;2023-05-10T03:21:10;24.20;;;12.98;;
28774;SDS011;15926;51.348;6.596;2023-05-10T03:26:26;26.40;;;13.60;;
28774;SDS011;15926;51.348;6.596;2023-05-10T03:28:53;26.70;;;13.20;;
28774;SDS011;15926;51.348;6.596;2023-05-10T03:31:20;28.15;;;14.60;;
28774;SDS011;15926;51.348;6.596;2023-05-10T03:33:47;27.42;;;14.38;;
28774;SDS011;15926;51.348;6.596;2023-05-10T03:36:13;32.33;;;15.43;;
28774;SDS011;15926;51.348;6.596;2023-05-10T03:38:39;31.05;;;15.02;;
28774;SDS011;15926;51.348;6.596;2023-05-10T03:41:05;32.47;;;14.98;;
28774;SDS011;15926;51.348;6.596;2023-05-10T03:43:31;29.60;;;14.15;;
28774;SDS011;15926;51.348;6.596;2023-05-10T03:45:57;33.20;;;16.25;;
28774;SDS011;15926;51.348;6.596;2023-05-10T03:48:23;30.15;;;15.20;;
28774;SDS011;15926;51.348;6.596;2023-05-10T03:50:49;35.08;;;16.40;;
28774;SDS011;15926;51.348;6.596;2023-05-10T03:53:15;32.70;;;16.85;;
28774;SDS011;15926;51.348;6.596;2023-05-10T03:55:41;33.38;;;16.45;;
28774;SDS011;15926;51.348;6.596;2023-05-10T03:58:10;35.60;;;17.40;;
28774;SDS011;15926;51.348;6.596;2023-05-10T04:00:36;36.03;;;16.95;;
28774;SDS011;15926;51.348;6.596;2023-05-10T04:03:02;44.22;;;18.52;;
28774;SDS011;15926;51.348;6.596;2023-05-10T04:05:28;40.50;;;18.90;;
28774;SDS011;15926;51.348;6.596;2023-05-10T04:07:54;47.00;;;21.00;;
28774;SDS011;15926;51.348;6.596;2023-05-10T04:10:20;43.90;;;19.25;;
28774;SDS011;15926;51.348;6.596;2023-05-10T04:12:46;40.10;;;19.75;;
28774;SDS011;15926;51.348;6.596;2023-05-10T04:15:12;46.97;;;20.13;;
28774;SDS011;15926;51.348;6.596;2023-05-10T04:17:39;51.33;;;21.73;;
28774;SDS011;15926;51.348;6.596;2023-05-10T04:20:05;50.33;;;21.48;;
28774;SDS011;15926;51.348;6.596;2023-05-10T04:22:31;50.30;;;22.50;;
28774;SDS011;15926;51.348;6.596;2023-05-10T04:24:58;53.28;;;21.75;;
28774;SDS011;15926;51.348;6.596;2023-05-10T04:27:24;50.55;;;21.98;;
28774;SDS011;15926;51.348;6.596;2023-05-10T04:29:50;51.58;;;21.88;;
28774;SDS011;15926;51.348;6.596;2023-05-10T04:32:16;50.42;;;22.65;;
28774;SDS011;15926;51.348;6.596;2023-05-10T04:34:42;58.30;;;25.27;;
28774;SDS011;15926;51.348;6.596;2023-05-10T04:37:08;55.38;;;22.67;;
28774;SDS011;15926;51.348;6.596;2023-05-10T04:39:34;58.67;;;22.48;;
28774;SDS011;15926;51.348;6.596;2023-05-10T04:42:00;57.08;;;25.77;;
28774;SDS011;15926;51.348;6.596;2023-05-10T04:44:27;62.67;;;25.65;;
28774;SDS011;15926;51.348;6.596;2023-05-10T04:46:53;49.35;;;22.73;;
28774;SDS011;15926;51.348;6.596;2023-05-10T04:49:19;53.85;;;22.67;;
28774;SDS011;15926;51.348;6.596;2023-05-10T04:51:46;55.33;;;22.98;;
28774;SDS011;15926;51.348;6.596;2023-05-10T04:54:12;56.78;;;24.50;;
28774;SDS011;15926;51.348;6.596;2023-05-10T04:56:38;59.83;;;25.15;;
28774;SDS011;15926;51.348;6.596;2023-05-10T04:59:04;57.10;;;22.20;;
28774;SDS011;15926;51.348;6.596;2023-05-10T05:01:30;58.92;;;24.58;;
28774;SDS011;15926;51.348;6.596;2023-05-10T05:03:56;50.22;;;23.77;;
28774;SDS011;15926;51.348;6.596;2023-05-10T05:06:22;59.15;;;25.95;;
28774;SDS011;15926;51.348;6.596;2023-05-10T05:08:49;51.60;;;22.88;;
28774;SDS011;15926;51.348;6.596;2023-05-10T05:11:16;50.42;;;23.70;;
28774;SDS011;15926;51.348;6.596;2023-05-10T05:13:42;53.03;;;24.52;;
28774;SDS011;15926;51.348;6.596;2023-05-10T05:16:08;54.70;;;25.00;;
28774;SDS011;15926;51.348;6.596;2023-05-10T05:18:35;61.75;;;26.17;;
28774;SDS011;15926;51.348;6.596;2023-05-10T05:21:01;54.63;;;25.17;;
28774;SDS011;15926;51.348;6.596;2023-05-10T05:23:27;55.63;;;25.30;;
28774;SDS011;15926;51.348;6.596;2023-05-10T05:25:53;52.53;;;24.33;;
28774;SDS011;15926;51.348;6.596;2023-05-10T05:28:19;49.13;;;23.63;;
28774;SDS011;15926;51.348;6.596;2023-05-10T05:30:46;58.67;;;25.73;;
28774;SDS011;15926;51.348;6.596;2023-05-10T05:33:15;62.80;;;26.20;;
28774;SDS011;15926;51.348;6.596;2023-05-10T05:35:41;57.67;;;25.13;;
28774;SDS011;15926;51.348;6.596;2023-05-10T05:38:12;57.88;;;26.75;;
28774;SDS011;15926;51.348;6.596;2023-05-10T05:40:38;59.30;;;26.75;;
28774;SDS011;15926;51.348;6.596;2023-05-10T05:43:04;57.28;;;25.50;;
28774;SDS011;15926;51.348;6.596;2023-05-10T05:45:30;62.67;;;28.08;;
28774;SDS011;15926;51.348;6.596;2023-05-10T05:47:56;61.53;;;28.05;;
28774;SDS011;15926;51.348;6.596;2023-05-10T05:50:22;64.55;;;27.02;;
28774;SDS011;15926;51.348;6.596;2023-05-10T05:52:48;57.75;;;25.83;;
28774;SDS011;15926;51.348;6.596;2023-05-10T05:55:14;55.67;;;26.35;;
28774;SDS011;15926;51.348;6.596;2023-05-10T05:57:40;58.97;;;26.20;;
28774;SDS011;15926;51.348;6.596;2023-05-10T06:00:06;61.22;;;26.73;;
28774;SDS011;15926;51.348;6.596;2023-05-10T06:02:32;58.50;;;26.35;;
28774;SDS011;15926;51.348;6.596;2023-05-10T06:04:58;63.97;;;26.83;;
28774;SDS011;15926;51.348;6.596;2023-05-10T06:07:24;61.05;;;27.65;;
28774;SDS011;15926;51.348;6.596;2023-05-10T06:09:50;53.95;;;24.98;;
28774;SDS011;15926;51.348;6.596;2023-05-10T06:12:16;64.28;;;26.25;;
28774;SDS011;15926;51.348;6.596;2023-05-10T06:14:42;60.90;;;25.67;;
28774;SDS011;15926;51.348;6.596;2023-05-10T06:17:08;60.90;;;26.45;;
28774;SDS011;15926;51.348;6.596;2023-05-10T06:19:34;61.85;;;26.48;;
28774;SDS011;15926;51.348;6.596;2023-05-10T06:22:01;60.70;;;26.08;;
28774;SDS011;15926;51.348;6.596;2023-05-10T06:24:27;62.33;;;25.98;;
28774;SDS011;15926;51.348;6.596;2023-05-10T06:26:53;62.28;;;24.75;;
28774;SDS011;15926;51.348;6.596;2023-05-10T06:29:19;55.50;;;24.20;;
28774;SDS011;15926;51.348;6.596;2023-05-10T06:31:45;64.65;;;25.05;;
28774;SDS011;15926;51.348;6.596;2023-05-10T06:34:12;60.47;;;25.52;;
28774;SDS011;15926;51.348;6.596;2023-05-10T06:36:38;63.13;;;24.75;;
28774;SDS011;15926;51.348;6.596;2023-05-10T06:39:04;63.05;;;25.38;;
28774;SDS011;15926;51.348;6.596;2023-05-10T06:41:30;67.00;;;27.60;;
28774;SDS011;15926;51.348;6.596;2023-05-10T06:43:56;58.83;;;23.70;;
28774;SDS011;15926;51.348;6.596;2023-05-10T06:46:22;60.50;;;24.60;;
28774;SDS011;15926;51.348;6.596;2023-05-10T06:48:48;58.28;;;24.27;;
28774;SDS011;15926;51.348;6.596;2023-05-10T06:51:14;57.28;;;23.60;;
28774;SDS011;15926;51.348;6.596;2023-05-10T06:53:40;65.68;;;24.85;;
28774;SDS011;15926;51.348;6.596;2023-05-10T06:56:06;58.97;;;23.90;;
28774;SDS011;15926;51.348;6.596;2023-05-10T06:58:33;57.75;;;23.48;;
28774;SDS011;15926;51.348;6.596;2023-05-10T07:01:02;54.92;;;24.48;;
28774;SDS011;15926;51.348;6.596;2023-05-10T07:03:29;50.88;;;22.52;;
28774;SDS011;15926;51.348;6.596;2023-05-10T07:05:59;58.65;;;23.67;;
28774;SDS011;15926;51.348;6.596;2023-05-10T07:08:25;55.65;;;23.70;;
28774;SDS011;15926;51.348;6.596;2023-05-10T07:10:51;58.22;;;22.08;;
28774;SDS011;15926;51.348;6.596;2023-05-10T07:13:17;52.20;;;21.30;;
28774;SDS011;15926;51.348;6.596;2023-05-10T07:15:43;53.70;;;21.88;;
28774;SDS011;15926;51.348;6.596;2023-05-10T07:18:09;53.25;;;22.55;;
28774;SDS011;15926;51.348;6.596;2023-05-10T07:20:35;48.15;;;22.80;;
28774;SDS011;15926;51.348;6.596;2023-05-10T07:23:01;50.90;;;22.10;;
28774;SDS011;15926;51.348;6.596;2023-05-10T07:25:27;53.00;;;23.55;;
28774;SDS011;15926;51.348;6.596;2023-05-10T07:27:53;53.33;;;23.13;;
28774;SDS011;15926;51.348;6.596;2023-05-10T07:30:19;42.35;;;20.95;;
28774;SDS011;15926;51.348;6.596;2023-05-10T07:32:45;48.15;;;22.45;;
28774;SDS011;15926;51.348;6.596;2023-05-10T07:35:11;42.40;;;22.23;;
28774;SDS011;15926;51.348;6.596;2023-05-10T07:37:37;43.92;;;22.25;;
28774;SDS011;15926;51.348;6.596;2023-05-10T07:40:03;46.78;;;22.33;;
28774;SDS011;15926;51.348;6.596;2023-05-10T07:42:29;52.03;;;24.05;;
28774;SDS011;15926;51.348;6.596;2023-05-10T07:44:55;52.75;;;24.77;;
28774;SDS011;15926;51.348;6.596;2023-05-10T07:47:21;51.08;;;24.23;;
28774;SDS011;15926;51.348;6.596;2023-05-10T07:49:48;48.13;;;24.27;;
28774;SDS011;15926;51.348;6.596;2023-05-10T07:52:14;55.03;;;25.25;;
28774;SDS011;15926;51.348;6.596;2023-05-10T07:54:40;50.97;;;23.15;;
28774;SDS011;15926;51.348;6.596;2023-05-10T07:57:06;45.70;;;24.50;;
28774;SDS011;15926;51.348;6.596;2023-05-10T07:59:32;47.70;;;23.30;;
28774;SDS011;15926;51.348;6.596;2023-05-10T08:01:58;51.17;;;25.85;;
28774;SDS011;15926;51.348;6.596;2023-05-10T08:04:24;52.08;;;23.52;;
28774;SDS011;15926;51.348;6.596;2023-05-10T08:06:50;48.33;;;24.48;;
28774;SDS011;15926;51.348;6.596;2023-05-10T08:09:16;49.92;;;24.75;;
28774;SDS011;15926;51.348;6.596;2023-05-10T08:11:42;49.72;;;25.15;;
28774;SDS011;15926;51.348;6.596;2023-05-10T08:14:08;41.60;;;22.50;;
28774;SDS011;15926;51.348;6.596;2023-05-10T08:16:34;43.35;;;22.17;;
28774;SDS011;15926;51.348;6.596;2023-05-10T08:19:00;44.35;;;20.92;;
28774;SDS011;15926;51.348;6.596;2023-05-10T08:21:26;41.83;;;20.48;;
28774;SDS011;15926;51.348;6.596;2023-05-10T08:23:52;36.83;;;19.95;;
28774;SDS011;15926;51.348;6.596;2023-05-10T08:26:18;38.13;;;21.83;;
28774;SDS011;15926;51.348;6.596;2023-05-10T08:28:46;34.63;;;20.23;;
28774;SDS011;15926;51.348;6.596;2023-05-10T08:31:12;38.42;;;20.80;;
28774;SDS011;15926;51.348;6.596;2023-05-10T08:33:38;38.08;;;20.95;;
28774;SDS011;15926;51.348;6.596;2023-05-10T08:36:04;34.38;;;20.92;;
28774;SDS011;15926;51.348;6.596;2023-05-10T08:38:30;32.10;;;18.98;;
28774;SDS011;15926;51.348;6.596;2023-05-10T08:40:56;32.28;;;19.38;;
28774;SDS011;15926;51.348;6.596;2023-05-10T08:43:23;29.10;;;17.65;;
28774;SDS011;15926;51.348;6.596;2023-05-10T08:45:52;32.13;;;18.30;;
28774;SDS011;15926;51.348;6.596;2023-05-10T08:48:19;31.75;;;18.65;;
28774;SDS011;15926;51.348;6.596;2023-05-10T08:50:45;27.42;;;18.63;;
28774;SDS011;15926;51.348;6.596;2023-05-10T08:53:12;31.55;;;17.85;;
28774;SDS011;15926;51.348;6.596;2023-05-10T08:55:39;28.75;;;16.38;;
28774;SDS011;15926;51.348;6.596;2023-05-10T08:58:07;27.35;;;17.75;;
28774;SDS011;15926;51.348;6.596;2023-05-10T09:00:33;34.50;;;17.65;;
28774;SDS011;15926;51.348;6.596;2023-05-10T09:03:00;22.15;;;13.50;;
28774;SDS011;15926;51.348;6.596;2023-05-10T09:05:26;25.23;;;15.05;;
28774;SDS011;15926;51.348;6.596;2023-05-10T09:07:52;24.52;;;15.32;;
28774;SDS011;15926;51.348;6.596;2023-05-10T09:10:18;26.00;;;14.90;;
28774;SDS011;15926;51.348;6.596;2023-05-10T09:12:44;21.48;;;14.32;;
28774;SDS011;15926;51.348;6.596;2023-05-10T09:15:11;28.13;;;16.02;;
28774;SDS011;15926;51.348;6.596;2023-05-10T09:17:39;27.20;;;16.13;;
28774;SDS011;15926;51.348;6.596;2023-05-10T09:20:06;25.13;;;16.05;;
28774;SDS011;15926;51.348;6.596;2023-05-10T09:22:32;22.13;;;13.80;;
28774;SDS011;15926;51.348;6.596;2023-05-10T09:25:05;24.65;;;15.15;;
28774;SDS011;15926;51.348;6.596;2023-05-10T09:27:32;24.60;;;15.02;;
28774;SDS011;15926;51.348;6.596;2023-05-10T09:29:58;28.65;;;16.67;;
28774;SDS011;15926;51.348;6.596;2023-05-10T09:32:37;24.75;;;16.00;;
28774;SDS011;15926;51.348;6.596;2023-05-10T09:35:10;24.65;;;15.02;;
28774;SDS011;15926;51.348;6.596;2023-05-10T09:37:41;23.38;;;14.32;;
28774;SDS011;15926;51.348;6.596;2023-05-10T09:40:08;23.95;;;15.55;;
28774;SDS011;15926;51.348;6.596;2023-05-10T09:42:36;25.77;;;14.70;;
28774;SDS011;15926;51.348;6.596;2023-05-10T09:45:05;25.67;;;14.88;;
28774;SDS011;15926;51.348;6.596;2023-05-10T09:47:32;25.98;;;14.80;;
28774;SDS011;15926;51.348;6.596;2023-05-10T09:49:59;22.60;;;15.40;;
28774;SDS011;15926;51.348;6.596;2023-05-10T09:52:28;22.90;;;15.05;;
28774;SDS011;15926;51.348;6.596;2023-05-10T09:54:54;22.38;;;15.10;;
28774;SDS011;15926;51.348;6.596;2023-05-10T09:57:21;23.13;;;15.38;;
28774;SDS011;15926;51.348;6.596;2023-05-10T09:59:50;24.67;;;15.75;;
28774;SDS011;15926;51.348;6.596;2023-05-10T10:02:18;21.80;;;14.95;;
28774;SDS011;15926;51.348;6.596;2023-05-10T10:04:45;26.85;;;15.70;;
28774;SDS011;15926;51.348;6.596;2023-05-10T10:07:15;21.25;;;14.65;;
28774;SDS011;15926;51.348;6.596;2023-05-10T10:09:47;25.83;;;15.18;;
28774;SDS011;15926;51.348;6.596;2023-05-10T10:12:13;22.58;;;14.15;;
28774;SDS011;15926;51.348;6.596;2023-05-10T10:14:40;21.13;;;13.45;;
28774;SDS011;15926;51.348;6.596;2023-05-10T10:17:06;18.88;;;12.10;;
28774;SDS011;15926;51.348;6.596;2023-05-10T10:19:32;21.98;;;12.82;;
28774;SDS011;15926;51.348;6.596;2023-05-10T10:21:59;16.60;;;11.90;;
28774;SDS011;15926;51.348;6.596;2023-05-10T10:24:26;15.90;;;12.20;;
28774;SDS011;15926;51.348;6.596;2023-05-10T10:26:52;19.08;;;12.77;;
28774;SDS011;15926;51.348;6.596;2023-05-10T10:29:23;15.45;;;11.52;;
28774;SDS011;15926;51.348;6.596;2023-05-10T10:32:08;18.55;;;11.25;;
28774;SDS011;15926;51.348;6.596;2023-05-10T10:34:35;15.32;;;10.68;;
28774;SDS011;15926;51.348;6.596;2023-05-10T10:37:05;21.00;;;11.52;;
28774;SDS011;15926;51.348;6.596;2023-05-10T10:39:31;17.27;;;12.27;;
28774;SDS011;15926;51.348;6.596;2023-05-10T10:41:58;15.32;;;11.30;;
28774;SDS011;15926;51.348;6.596;2023-05-10T10:50:07;13.73;;;9.88;;
28774;SDS011;15926;51.348;6.596;2023-05-10T10:55:07;14.30;;;10.13;;
28774;SDS011;15926;51.348;6.596;2023-05-10T11:00:26;15.30;;;11.57;;
28774;SDS011;15926;51.348;6.596;2023-05-10T11:03:14;14.68;;;11.10;;
28774;SDS011;15926;51.348;6.596;2023-05-10T11:08:09;13.98;;;10.32;;
28774;SDS011;15926;51.348;6.596;2023-05-10T11:10:36;15.98;;;9.25;;
28774;SDS011;15926;51.348;6.596;2023-05-10T11:13:02;15.32;;;10.98;;
28774;SDS011;15926;51.348;6.596;2023-05-10T11:15:33;15.88;;;10.68;;
28774;SDS011;15926;51.348;6.596;2023-05-10T11:17:59;17.73;;;9.73;;
28774;SDS011;15926;51.348;6.596;2023-05-10T11:20:29;12.93;;;9.77;;
28774;SDS011;15926;51.348;6.596;2023-05-10T11:23:11;18.50;;;10.35;;
28774;SDS011;15926;51.348;6.596;2023-05-10T11:25:44;15.75;;;10.18;;
28774;SDS011;15926;51.348;6.596;2023-05-10T11:28:11;10.38;;;9.02;;
28774;SDS011;15926;51.348;6.596;2023-05-10T11:30:38;11.00;;;9.15;;
28774;SDS011;15926;51.348;6.596;2023-05-10T11:33:04;11.20;;;8.48;;
28774;SDS011;15926;51.348;6.596;2023-05-10T11:35:30;11.15;;;8.98;;
28774;SDS011;15926;51.348;6.596;2023-05-10T11:37:56;13.13;;;9.38;;
28774;SDS011;15926;51.348;6.596;2023-05-10T11:40:22;14.23;;;9.38;;
28774;SDS011;15926;51.348;6.596;2023-05-10T11:42:49;12.77;;;9.20;;
28774;SDS011;15926;51.348;6.596;2023-05-10T11:45:15;11.93;;;9.13;;
28774;SDS011;15926;51.348;6.596;2023-05-10T11:47:41;11.90;;;9.73;;
28774;SDS011;15926;51.348;6.596;2023-05-10T11:50:08;15.75;;;9.88;;
28774;SDS011;15926;51.348;6.596;2023-05-10T11:52:35;11.85;;;9.70;;
28774;SDS011;15926;51.348;6.596;2023-05-10T11:55:02;12.60;;;10.40;;
28774;SDS011;15926;51.348;6.596;2023-05-10T11:57:28;12.32;;;10.57;;
28774;SDS011;15926;51.348;6.596;2023-05-10T11:59:58;16.20;;;12.38;;
28774;SDS011;15926;51.348;6.596;2023-05-10T12:02:24;14.82;;;10.68;;
28774;SDS011;15926;51.348;6.596;2023-05-10T12:04:50;14.13;;;10.88;;
28774;SDS011;15926;51.348;6.596;2023-05-10T12:07:16;12.40;;;10.70;;
28774;SDS011;15926;51.348;6.596;2023-05-10T12:10:15;13.60;;;11.60;;
28774;SDS011;15926;51.348;6.596;2023-05-10T12:12:44;12.38;;;10.45;;
28774;SDS011;15926;51.348;6.596;2023-05-10T12:15:17;11.57;;;10.38;;
28774;SDS011;15926;51.348;6.596;2023-05-10T12:17:44;12.40;;;10.05;;
28774;SDS011;15926;51.348;6.596;2023-05-10T12:20:23;11.90;;;9.35;;
28774;SDS011;15926;51.348;6.596;2023-05-10T12:22:50;11.60;;;10.00;;
28774;SDS011;15926;51.348;6.596;2023-05-10T12:25:17;10.48;;;9.38;;
28774;SDS011;15926;51.348;6.596;2023-05-10T12:27:53;11.52;;;8.40;;
28774;SDS011;15926;51.348;6.596;2023-05-10T12:30:23;8.88;;;7.78;;
28774;SDS011;15926;51.348;6.596;2023-05-10T12:32:49;12.00;;;7.95;;
28774;SDS011;15926;51.348;6.596;2023-05-10T12:35:16;8.98;;;8.07;;
28774;SDS011;15926;51.348;6.596;2023-05-10T12:37:43;9.70;;;8.70;;
28774;SDS011;15926;51.348;6.596;2023-05-10T12:40:12;8.85;;;7.95;;
28774;SDS011;15926;51.348;6.596;2023-05-10T12:42:38;9.02;;;8.00;;
28774;SDS011;15926;51.348;6.596;2023-05-10T12:45:05;8.98;;;7.25;;
28774;SDS011;15926;51.348;6.596;2023-05-10T12:47:32;10.27;;;9.20;;
28774;SDS011;15926;51.348;6.596;2023-05-10T12:49:58;12.20;;;10.60;;
28774;SDS011;15926;51.348;6.596;2023-05-10T12:52:25;11.25;;;9.35;;
28774;SDS011;15926;51.348;6.596;2023-05-10T12:54:51;9.85;;;8.05;;
28774;SDS011;15926;51.348;6.596;2023-05-10T12:57:20;11.93;;;9.93;;
28774;SDS011;15926;51.348;6.596;2023-05-10T12:59:47;9.68;;;8.75;;
28774;SDS011;15926;51.348;6.596;2023-05-10T13:02:12;11.82;;;9.50;;
28774;SDS011;15926;51.348;6.596;2023-05-10T13:04:39;10.27;;;9.27;;
28774;SDS011;15926;51.348;6.596;2023-05-10T13:07:06;12.70;;;9.77;;
28774;SDS011;15926;51.348;6.596;2023-05-10T13:09:32;9.73;;;8.63;;
28774;SDS011;15926;51.348;6.596;2023-05-10T13:11:58;11.75;;;9.80;;
28774;SDS011;15926;51.348;6.596;2023-05-10T13:14:24;11.18;;;10.07;;
28774;SDS011;15926;51.348;6.596;2023-05-10T13:16:50;11.07;;;9.23;;
28774;SDS011;15926;51.348;6.596;2023-05-10T13:19:17;12.43;;;9.95;;
28774;SDS011;15926;51.348;6.596;2023-05-10T13:21:43;11.85;;;10.07;;
28774;SDS011;15926;51.348;6.596;2023-05-10T13:24:10;14.02;;;10.57;;
28774;SDS011;15926;51.348;6.596;2023-05-10T13:26:38;15.88;;;10.82;;
28774;SDS011;15926;51.348;6.596;2023-05-10T13:29:04;13.68;;;11.60;;
28774;SDS011;15926;51.348;6.596;2023-05-10T13:31:30;13.70;;;10.48;;
28774;SDS011;15926;51.348;6.596;2023-05-10T13:33:56;14.45;;;11.18;;
28774;SDS011;15926;51.348;6.596;2023-05-10T13:36:22;14.68;;;11.10;;
28774;SDS011;15926;51.348;6.596;2023-05-10T13:38:48;17.90;;;12.50;;
28774;SDS011;15926;51.348;6.596;2023-05-10T13:41:14;17.13;;;12.70;;
28774;SDS011;15926;51.348;6.596;2023-05-10T13:43:40;15.75;;;11.73;;
28774;SDS011;15926;51.348;6.596;2023-05-10T13:46:06;18.92;;;14.68;;
28774;SDS011;15926;51.348;6.596;2023-05-10T13:48:32;17.52;;;13.55;;
28774;SDS011;15926;51.348;6.596;2023-05-10T13:50:58;21.23;;;15.50;;
28774;SDS011;15926;51.348;6.596;2023-05-10T13:53:24;18.00;;;13.18;;
28774;SDS011;15926;51.348;6.596;2023-05-10T13:55:50;16.45;;;12.98;;
28774;SDS011;15926;51.348;6.596;2023-05-10T13:58:16;16.00;;;12.35;;
28774;SDS011;15926;51.348;6.596;2023-05-10T14:00:42;17.55;;;13.65;;
28774;SDS011;15926;51.348;6.596;2023-05-10T14:03:08;14.93;;;12.38;;
28774;SDS011;15926;51.348;6.596;2023-05-10T14:05:35;15.55;;;12.90;;
28774;SDS011;15926;51.348;6.596;2023-05-10T14:08:01;15.93;;;11.27;;
28774;SDS011;15926;51.348;6.596;2023-05-10T14:10:28;10.93;;;8.23;;
28774;SDS011;15926;51.348;6.596;2023-05-10T14:12:55;9.73;;;8.65;;
28774;SDS011;15926;51.348;6.596;2023-05-10T14:15:21;11.43;;;9.55;;
28774;SDS011;15926;51.348;6.596;2023-05-10T14:17:47;12.40;;;9.68;;
28774;SDS011;15926;51.348;6.596;2023-05-10T14:20:13;16.73;;;11.35;;
28774;SDS011;15926;51.348;6.596;2023-05-10T14:22:39;17.65;;;13.07;;
28774;SDS011;15926;51.348;6.596;2023-05-10T14:25:05;16.13;;;12.77;;
28774;SDS011;15926;51.348;6.596;2023-05-10T14:27:31;14.88;;;12.60;;
28774;SDS011;15926;51.348;6.596;2023-05-10T14:29:57;17.02;;;13.50;;
28774;SDS011;15926;51.348;6.596;2023-05-10T14:32:23;17.60;;;13.85;;
28774;SDS011;15926;51.348;6.596;2023-05-10T14:34:52;15.13;;;11.95;;
28774;SDS011;15926;51.348;6.596;2023-05-10T14:37:18;14.90;;;11.57;;
28774;SDS011;15926;51.348;6.596;2023-05-10T14:39:44;12.10;;;10.15;;
28774;SDS011;15926;51.348;6.596;2023-05-10T14:42:10;10.68;;;9.57;;
28774;SDS011;15926;51.348;6.596;2023-05-10T14:44:36;11.05;;;9.10;;
28774;SDS011;15926;51.348;6.596;2023-05-10T14:47:02;12.85;;;10.10;;
28774;SDS011;15926;51.348;6.596;2023-05-10T14:49:28;12.73;;;10.25;;
28774;SDS011;15926;51.348;6.596;2023-05-10T14:51:55;10.43;;;8.98;;